Time;durP1;ratioP1;P1;durP2;ratioP2;P2;SDS_P1;SDS_P2;PMS_P1;PMS_P2;Temp;Humidity;BMP_temperature;BMP_pressure;BME280_temperature;BME280_humidity;BME280_pressure;Samples;Min_cycle;Max_cycle;Signal;HPM_P1;HPM_P2
2023/01/05 00:01:54;;;;;;;0.00;0.00;;;;;;;;;;5114826;28;20043;-79
2023/01/05 00:04:20;;;;;;;0.00;0.00;;;;;;;;;;5114895;28;20067;-79
2023/01/05 00:06:47;;;;;;;0.00;0.00;;;;;;;;;;5114702;28;20043;-79
2023/01/05 00:09:14;;;;;;;0.00;0.00;;;;;;;;;;5113294;28;20479;-79
2023/01/05 00:22:47;;;;;;;0.00;0.00;;;;;;;;;;5114487;28;20067;-79
2023/01/05 00:25:15;;;;;;;0.00;0.00;;;;;;;;;;5114471;28;20058;-79
2023/01/05 00:27:41;;;;;;;0.00;0.00;;;;;;;;;;5112863;28;20096;-79
2023/01/05 00:30:08;;;;;;;0.00;0.00;;;;;;;;;;5112993;28;20043;-79
2023/01/05 00:32:34;;;;;;;0.00;0.00;;;;;;;;;;5114081;28;20088;-79
2023/01/05 00:35:01;;;;;;;0.00;0.00;;;;;;;;;;5073422;28;20048;-79
2023/01/05 00:37:30;;;;;;;0.00;0.00;;;;;;;;;;5073420;28;20044;-79
2023/01/05 00:39:55;;;;;;;0.00;0.00;;;;;;;;;;5073494;28;20036;-79
2023/01/05 00:42:22;;;;;;;0.00;0.00;;;;;;;;;;5072995;28;20047;-79
2023/01/05 00:44:48;;;;;;;0.00;0.00;;;;;;;;;;5071856;28;20047;-79
2023/01/05 00:47:14;;;;;;;0.00;0.00;;;;;;;;;;5072011;28;20399;-80
2023/01/05 00:49:40;;;;;;;0.00;0.00;;;;;;;;;;5072114;28;20083;-80
2023/01/05 00:52:06;;;;;;;0.00;0.00;;;;;;;;;;5055237;28;20044;-79
2023/01/05 00:54:32;;;;;;;0.00;0.00;;;;;;;;;;5072884;28;20050;-79
2023/01/05 00:56:58;;;;;;;0.00;0.00;;;;;;;;;;5073034;28;20040;-79
2023/01/05 00:59:24;;;;;;;0.00;0.00;;;;;;;;;;5073070;28;20153;-79
2023/01/05 01:01:51;;;;;;;0.00;0.00;;;;;;;;;;5071755;28;20040;-79
2023/01/05 01:04:18;;;;;;;0.00;0.00;;;;;;;;;;5072803;28;20434;-79
2023/01/05 01:06:44;;;;;;;0.00;0.00;;;;;;;;;;5071532;28;20051;-79
2023/01/05 01:09:10;;;;;;;0.00;0.00;;;;;;;;;;5071384;28;20048;-79
2023/01/05 01:11:37;;;;;;;0.00;0.00;;;;;;;;;;5071569;28;20052;-79
2023/01/05 01:14:03;;;;;;;0.00;0.00;;;;;;;;;;5071353;28;20484;-79
2023/01/05 01:16:29;;;;;;;0.00;0.00;;;;;;;;;;5071305;28;20052;-79
2023/01/05 01:18:56;;;;;;;0.00;0.00;;;;;;;;;;5071238;28;20047;-80
2023/01/05 01:21:22;;;;;;;0.00;0.00;;;;;;;;;;5071505;28;20032;-80
2023/01/05 01:23:48;;;;;;;0.00;0.00;;;;;;;;;;5071078;28;20048;-79
2023/01/05 01:26:14;;;;;;;0.00;0.00;;;;;;;;;;5072533;28;20582;-79
2023/01/05 01:28:40;;;;;;;0.00;0.00;;;;;;;;;;5072278;28;20348;-79
2023/01/05 01:31:06;;;;;;;0.00;0.00;;;;;;;;;;5072506;28;20048;-79
2023/01/05 01:33:32;;;;;;;0.00;0.00;;;;;;;;;;5086665;28;20077;-79
2023/01/05 01:35:58;;;;;;;0.00;0.00;;;;;;;;;;5111540;28;20047;-79
2023/01/05 01:38:26;;;;;;;0.00;0.00;;;;;;;;;;5111423;28;20068;-79
2023/01/05 01:40:52;;;;;;;0.00;0.00;;;;;;;;;;5111794;28;20052;-79
2023/01/05 01:43:36;;;;;;;0.00;0.00;;;;;;;;;;5111382;28;20046;-79
2023/01/05 01:46:02;;;;;;;0.00;0.00;;;;;;;;;;5112861;28;20491;-80
2023/01/05 01:48:28;;;;;;;4.18;0.38;;;;;;;;;;5111363;28;20047;-80
2023/01/05 01:50:54;;;;;;;0.00;0.00;;;;;;;;;;5112808;28;20176;-79
2023/01/05 01:53:24;;;;;;;0.00;0.00;;;;;;;;;;5111143;28;20429;-79
2023/01/05 01:55:51;;;;;;;0.00;0.00;;;;;;;;;;5094469;28;20042;-80
2023/01/05 01:58:19;;;;;;;0.00;0.00;;;;;;;;;;5093923;28;20047;-78
2023/01/05 02:00:46;;;;;;;0.00;0.00;;;;;;;;;;5111424;28;20036;-80
2023/01/05 02:03:12;;;;;;;0.00;0.00;;;;;;;;;;5111188;28;20126;-79
2023/01/05 02:05:38;;;;;;;0.00;0.00;;;;;;;;;;5111436;28;20390;-79
2023/01/05 02:08:09;;;;;;;0.00;0.00;;;;;;;;;;5111112;28;20043;-79
2023/01/05 02:10:39;;;;;;;0.00;0.00;;;;;;;;;;5112635;28;20479;-79
2023/01/05 02:13:21;;;;;;;0.00;0.00;;;;;;;;;;5112438;28;20048;-80
2023/01/05 02:15:56;;;;;;;0.00;0.00;;;;;;;;;;5112534;28;20035;-79
2023/01/05 02:18:34;;;;;;;0.00;0.00;;;;;;;;;;5111006;28;20360;-79
2023/01/05 02:21:38;;;;;;;0.00;0.00;;;;;;;;;;5111229;28;20093;-79
2023/01/05 02:24:07;;;;;;;0.00;0.00;;;;;;;;;;5049571;28;20124;-80
2023/01/05 02:26:37;;;;;;;0.00;0.00;;;;;;;;;;5033015;28;20045;-79
2023/01/05 02:29:03;;;;;;;0.00;0.00;;;;;;;;;;5081801;28;20047;-79
2023/01/05 02:31:32;;;;;;;0.00;0.00;;;;;;;;;;5111163;28;20044;-79
2023/01/05 02:33:59;;;;;;;0.00;0.00;;;;;;;;;;5110747;28;20517;-79
2023/01/05 02:36:28;;;;;;;0.00;0.00;;;;;;;;;;5111022;28;20055;-79
2023/01/05 02:38:57;;;;;;;0.00;0.00;;;;;;;;;;5111214;28;20051;-80
2023/01/05 02:41:26;;;;;;;0.00;0.00;;;;;;;;;;5112294;28;20466;-80
2023/01/05 02:43:52;;;;;;;0.00;0.00;;;;;;;;;;5112074;28;20035;-80
2023/01/05 02:46:18;;;;;;;0.00;0.00;;;;;;;;;;5112444;28;20040;-79
2023/01/05 02:48:45;;;;;;;0.00;0.00;;;;;;;;;;5112191;28;20044;-80
2023/01/05 02:51:18;;;;;;;0.00;0.00;;;;;;;;;;5110983;28;20126;-79
2023/01/05 02:53:47;;;;;;;0.00;0.00;;;;;;;;;;5111931;28;20067;-79
2023/01/05 02:56:15;;;;;;;0.00;0.00;;;;;;;;;;5110855;28;20035;-79
2023/01/05 02:58:44;;;;;;;0.00;0.00;;;;;;;;;;5112061;28;20105;-79
2023/01/05 03:01:14;;;;;;;0.00;0.00;;;;;;;;;;5112409;28;20093;-79
2023/01/05 03:03:41;;;;;;;0.00;0.00;;;;;;;;;;5110576;28;20035;-79
2023/01/05 03:06:20;;;;;;;0.00;0.00;;;;;;;;;;5110934;28;20043;-79
2023/01/05 03:08:48;;;;;;;0.00;0.00;;;;;;;;;;5110620;28;20051;-79
2023/01/05 03:13:59;;;;;;;0.00;0.00;;;;;;;;;;5115538;28;20126;-79
2023/01/05 03:16:27;;;;;;;0.00;0.00;;;;;;;;;;5115724;28;20225;-80
2023/01/05 03:35:37;;;;;;;0.00;0.00;;;;;;;;;;5115806;28;20052;-79
2023/01/05 03:38:29;;;;;;;0.00;0.00;;;;;;;;;;5114904;28;20075;-79
2023/01/05 03:40:57;;;;;;;0.00;0.00;;;;;;;;;;5084218;28;20043;-79
2023/01/05 03:43:23;;;;;;;0.00;0.00;;;;;;;;;;5114655;28;20539;-79
2023/01/05 03:45:56;;;;;;;0.00;0.00;;;;;;;;;;5114103;28;20062;-79
2023/01/05 03:48:23;;;;;;;0.00;0.00;;;;;;;;;;5114150;28;20081;-79
2023/01/05 03:50:49;;;;;;;0.00;0.00;;;;;;;;;;5113933;28;20372;-79
2023/01/05 03:53:15;;;;;;;0.00;0.00;;;;;;;;;;5096786;28;20051;-79
2023/01/05 03:55:41;;;;;;;0.00;0.00;;;;;;;;;;5113369;28;20066;-79
2023/01/05 03:58:08;;;;;;;0.00;0.00;;;;;;;;;;5113964;28;20039;-79
2023/01/05 04:00:34;;;;;;;0.00;0.00;;;;;;;;;;5113708;28;20446;-79
2023/01/05 04:03:00;;;;;;;0.00;0.00;;;;;;;;;;5115009;28;20071;-79
2023/01/05 04:05:25;;;;;;;1.10;0.20;;;;;;;;;;5113505;28;20049;-79
2023/01/05 04:07:52;;;;;;;0.00;0.00;;;;;;;;;;5114969;28;20490;-79
2023/01/05 04:10:18;;;;;;;0.00;0.00;;;;;;;;;;5113526;28;20218;-79
2023/01/05 04:12:45;;;;;;;0.00;0.00;;;;;;;;;;5114650;28;20074;-79
2023/01/05 04:15:11;;;;;;;0.00;0.00;;;;;;;;;;5112906;28;20104;-79
2023/01/05 04:17:37;;;;;;;0.10;0.10;;;;;;;;;;5113289;28;20039;-79
2023/01/05 04:20:04;;;;;;;0.00;0.00;;;;;;;;;;5113211;28;20036;-79
2023/01/05 04:22:31;;;;;;;0.00;0.00;;;;;;;;;;5112879;28;20032;-79
2023/01/05 04:24:57;;;;;;;0.00;0.00;;;;;;;;;;5113032;28;20112;-79
2023/01/05 04:27:23;;;;;;;0.00;0.00;;;;;;;;;;5112982;28;20036;-79
2023/01/05 04:29:49;;;;;;;0.00;0.00;;;;;;;;;;5114294;28;20036;-79
2023/01/05 04:32:15;;;;;;;0.00;0.00;;;;;;;;;;5114406;28;20036;-79
2023/01/05 04:34:41;;;;;;;0.00;0.00;;;;;;;;;;5113878;28;20051;-79
2023/01/05 04:37:07;;;;;;;0.00;0.00;;;;;;;;;;5112998;28;20124;-80
2023/01/05 04:39:33;;;;;;;0.00;0.00;;;;;;;;;;5112666;28;20119;-79
2023/01/05 04:41:58;;;;;;;0.00;0.00;;;;;;;;;;5113025;28;20114;-79
2023/01/05 04:44:24;;;;;;;0.00;0.00;;;;;;;;;;5112611;28;20040;-80
2023/01/05 04:46:50;;;;;;;0.00;0.00;;;;;;;;;;5113959;28;20040;-79
2023/01/05 04:49:16;;;;;;;0.00;0.00;;;;;;;;;;5112744;28;20482;-79
2023/01/05 04:51:42;;;;;;;0.00;0.00;;;;;;;;;;5112447;28;20035;-79
2023/01/05 04:54:09;;;;;;;0.00;0.00;;;;;;;;;;5113908;28;20096;-79
2023/01/05 04:56:35;;;;;;;0.00;0.00;;;;;;;;;;5112210;28;20047;-79
2023/01/05 04:59:01;;;;;;;0.00;0.00;;;;;;;;;;5113746;28;20040;-79
2023/01/05 05:01:26;;;;;;;0.00;0.00;;;;;;;;;;5112604;28;20088;-79
2023/01/05 05:03:52;;;;;;;0.20;0.15;;;;;;;;;;5113869;28;20590;-79
2023/01/05 05:06:18;;;;;;;0.00;0.00;;;;;;;;;;5112183;28;20047;-79
2023/01/05 05:08:44;;;;;;;0.00;0.00;;;;;;;;;;5112304;28;20406;-80
2023/01/05 05:11:10;;;;;;;0.00;0.00;;;;;;;;;;5111909;28;20054;-79
2023/01/05 05:13:36;;;;;;;0.00;0.00;;;;;;;;;;5113750;28;20047;-79
2023/01/05 05:16:02;;;;;;;0.00;0.00;;;;;;;;;;5111945;28;20048;-79
2023/01/05 05:18:28;;;;;;;0.00;0.00;;;;;;;;;;5112230;28;20063;-80
2023/01/05 05:20:54;;;;;;;0.00;0.00;;;;;;;;;;5111840;28;20100;-79
2023/01/05 05:23:20;;;;;;;0.00;0.00;;;;;;;;;;5112168;28;20039;-79
2023/01/05 05:25:50;;;;;;;0.00;0.00;;;;;;;;;;5111626;28;20122;-79
2023/01/05 05:28:16;;;;;;;0.00;0.00;;;;;;;;;;5113207;28;20048;-79
2023/01/05 05:30:42;;;;;;;0.00;0.00;;;;;;;;;;5113134;28;20063;-79
2023/01/05 05:33:08;;;;;;;0.00;0.00;;;;;;;;;;5111273;28;20039;-79
2023/01/05 05:35:34;;;;;;;0.00;0.00;;;;;;;;;;5111531;28;20475;-80
2023/01/05 05:38:00;;;;;;;0.00;0.00;;;;;;;;;;5112010;28;20054;-80
2023/01/05 05:40:27;;;;;;;0.00;0.00;;;;;;;;;;5111520;28;20049;-80
2023/01/05 05:42:53;;;;;;;0.00;0.00;;;;;;;;;;5113387;28;20535;-80
2023/01/05 05:45:19;;;;;;;0.00;0.00;;;;;;;;;;5112785;28;20486;-80
2023/01/05 05:47:45;;;;;;;0.00;0.00;;;;;;;;;;5111838;28;20119;-79
2023/01/05 05:50:11;;;;;;;0.00;0.00;;;;;;;;;;5111728;28;20406;-80
2023/01/05 05:52:37;;;;;;;0.00;0.00;;;;;;;;;;5111788;28;20372;-79
2023/01/05 05:55:03;;;;;;;0.00;0.00;;;;;;;;;;5111902;28;20043;-79
2023/01/05 05:57:29;;;;;;;0.00;0.00;;;;;;;;;;5113019;28;20188;-79
2023/01/05 05:59:55;;;;;;;0.00;0.00;;;;;;;;;;5111897;28;20085;-79
2023/01/05 06:02:21;;;;;;;0.00;0.00;;;;;;;;;;5111559;28;20055;-79
2023/01/05 06:04:47;;;;;;;0.00;0.00;;;;;;;;;;5112817;28;20050;-80
2023/01/05 06:07:13;;;;;;;0.00;0.00;;;;;;;;;;5112283;28;20445;-79
2023/01/05 06:09:40;;;;;;;0.00;0.00;;;;;;;;;;5112827;28;20107;-79
2023/01/05 06:12:06;;;;;;;0.00;0.00;;;;;;;;;;5111022;28;20044;-79
2023/01/05 06:14:32;;;;;;;0.00;0.00;;;;;;;;;;5112674;28;20119;-80
2023/01/05 06:16:59;;;;;;;0.00;0.00;;;;;;;;;;5111014;28;20123;-79
2023/01/05 06:19:25;;;;;;;0.00;0.00;;;;;;;;;;5094314;28;20043;-80
2023/01/05 06:21:51;;;;;;;0.00;0.00;;;;;;;;;;5110974;28;20375;-80
2023/01/05 06:24:17;;;;;;;0.00;0.00;;;;;;;;;;5111089;28;20134;-80
2023/01/05 06:26:44;;;;;;;0.00;0.00;;;;;;;;;;5110993;28;20043;-80
2023/01/05 06:29:10;;;;;;;0.00;0.00;;;;;;;;;;5094385;28;20043;-80
2023/01/05 06:31:36;;;;;;;0.00;0.00;;;;;;;;;;5111009;28;20429;-80
2023/01/05 06:34:03;;;;;;;0.00;0.00;;;;;;;;;;5110985;28;20059;-81
2023/01/05 06:36:29;;;;;;;0.00;0.00;;;;;;;;;;5110688;28;20063;-80
2023/01/05 06:38:55;;;;;;;0.00;0.00;;;;;;;;;;5111089;28;20047;-80
2023/01/05 06:41:21;;;;;;;0.00;0.00;;;;;;;;;;5110845;28;20513;-80
2023/01/05 06:43:46;;;;;;;0.00;0.00;;;;;;;;;;5112395;28;20036;-80
2023/01/05 06:46:12;;;;;;;0.00;0.00;;;;;;;;;;5115701;28;20157;-80
2023/01/05 06:48:38;;;;;;;0.00;0.00;;;;;;;;;;5116225;28;20039;-80
2023/01/05 06:51:04;;;;;;;0.00;0.00;;;;;;;;;;5116025;28;20058;-80
2023/01/05 06:53:30;;;;;;;0.00;0.00;;;;;;;;;;5116342;28;20035;-80
2023/01/05 06:55:56;;;;;;;0.00;0.00;;;;;;;;;;5114573;28;20118;-80
2023/01/05 06:58:22;;;;;;;0.00;0.00;;;;;;;;;;5114990;28;20115;-79
2023/01/05 07:00:48;;;;;;;0.00;0.00;;;;;;;;;;5114669;28;20035;-80
2023/01/05 07:03:14;;;;;;;0.00;0.00;;;;;;;;;;5115915;28;20044;-80
2023/01/05 07:05:41;;;;;;;0.00;0.00;;;;;;;;;;5114810;28;20101;-80
2023/01/05 07:08:07;;;;;;;0.00;0.00;;;;;;;;;;5115538;28;20486;-81
2023/01/05 07:10:33;;;;;;;0.00;0.00;;;;;;;;;;5116096;28;20042;-80
2023/01/05 07:12:59;;;;;;;0.00;0.00;;;;;;;;;;5114459;28;20126;-80
2023/01/05 07:15:25;;;;;;;0.00;0.00;;;;;;;;;;5115704;28;20075;-79
2023/01/05 07:17:51;;;;;;;0.00;0.00;;;;;;;;;;5114155;28;20495;-79
2023/01/05 07:20:17;;;;;;;0.00;0.00;;;;;;;;;;5114463;28;20043;-80
2023/01/05 07:22:43;;;;;;;0.00;0.00;;;;;;;;;;5114381;28;20039;-80
2023/01/05 07:25:10;;;;;;;0.00;0.00;;;;;;;;;;5114494;28;20054;-80
2023/01/05 07:27:36;;;;;;;1.65;0.10;;;;;;;;;;5115434;28;20043;-80
2023/01/05 07:30:02;;;;;;;0.00;0.00;;;;;;;;;;5115498;28;20067;-80
2023/01/05 07:32:28;;;;;;;0.00;0.00;;;;;;;;;;5115130;28;20375;-80
2023/01/05 07:34:54;;;;;;;0.00;0.00;;;;;;;;;;5113675;28;20101;-80
2023/01/05 07:37:20;;;;;;;0.00;0.00;;;;;;;;;;5113757;28;20075;-80
2023/01/05 07:39:46;;;;;;;0.00;0.00;;;;;;;;;;5113919;28;20043;-80
2023/01/05 07:42:12;;;;;;;0.05;0.00;;;;;;;;;;5113684;28;20121;-80
2023/01/05 07:44:38;;;;;;;0.00;0.00;;;;;;;;;;5115050;28;20112;-82
2023/01/05 07:47:04;;;;;;;0.00;0.00;;;;;;;;;;5113631;28;20111;-82
2023/01/05 07:49:30;;;;;;;0.00;0.00;;;;;;;;;;5113861;28;20085;-80
2023/01/05 07:51:56;;;;;;;0.00;0.00;;;;;;;;;;5113508;28;20130;-81
2023/01/05 07:54:22;;;;;;;0.00;0.00;;;;;;;;;;5113655;28;20054;-80
2023/01/05 07:56:48;;;;;;;0.00;0.00;;;;;;;;;;5112593;28;20043;-83
2023/01/05 07:59:14;;;;;;;0.00;0.00;;;;;;;;;;5096454;28;20044;-81
2023/01/05 08:01:40;;;;;;;0.00;0.00;;;;;;;;;;5113529;28;20043;-81
2023/01/05 08:04:06;;;;;;;0.00;0.00;;;;;;;;;;5114600;28;20036;-81
2023/01/05 08:06:32;;;;;;;0.00;0.00;;;;;;;;;;5113643;28;20043;-80
2023/01/05 08:10:27;;;;;;;0.00;0.00;;;;;;;;;;5114608;27;20039;-80
2023/01/05 08:11:44;;;;;;;0.00;0.00;;;;;;;;;;5114396;28;20053;-81
2023/01/05 08:14:10;;;;;;;0.00;0.00;;;;;;;;;;5096205;28;20122;-81
2023/01/05 08:16:36;;;;;;;0.00;0.00;;;;;;;;;;5113078;28;20382;-81
2023/01/05 08:19:02;;;;;;;0.00;0.00;;;;;;;;;;5113035;28;20092;-80
2023/01/05 08:21:28;;;;;;;0.00;0.00;;;;;;;;;;5114641;28;20032;-80
2023/01/05 08:23:54;;;;;;;0.00;0.00;;;;;;;;;;5114078;28;20043;-80
2023/01/05 08:26:22;;;;;;;0.00;0.00;;;;;;;;;;5113004;28;20047;-80
2023/01/05 08:28:48;;;;;;;0.00;0.00;;;;;;;;;;5113981;27;20050;-81
2023/01/05 08:31:19;;;;;;;0.00;0.00;;;;;;;;;;5113340;28;20039;-81
2023/01/05 08:33:45;;;;;;;0.00;0.00;;;;;;;;;;5112354;28;20059;-81
2023/01/05 08:36:18;;;;;;;0.00;0.00;;;;;;;;;;5112765;28;20482;-81
2023/01/05 08:38:47;;;;;;;0.00;0.00;;;;;;;;;;5112692;28;20040;-80
2023/01/05 08:41:27;;;;;;;0.00;0.00;;;;;;;;;;5112933;28;20123;-81
2023/01/05 08:43:55;;;;;;;0.00;0.00;;;;;;;;;;5112362;28;20376;-80
2023/01/05 08:46:22;;;;;;;0.00;0.00;;;;;;;;;;5112701;28;20047;-80
2023/01/05 08:48:49;;;;;;;0.00;0.00;;;;;;;;;;5112604;28;20044;-80
2023/01/05 08:51:15;;;;;;;0.00;0.00;;;;;;;;;;5112419;28;20050;-80
2023/01/05 08:53:41;;;;;;;0.00;0.00;;;;;;;;;;5112363;28;20390;-80
2023/01/05 08:56:09;;;;;;;0.00;0.00;;;;;;;;;;5112444;28;20041;-80
2023/01/05 08:58:35;;;;;;;0.00;0.00;;;;;;;;;;5113641;28;20036;-81
2023/01/05 09:01:05;;;;;;;0.00;0.00;;;;;;;;;;5114034;28;20046;-80
2023/01/05 09:03:31;;;;;;;0.00;0.00;;;;;;;;;;5113610;28;20039;-80
2023/01/05 09:06:01;;;;;;;0.00;0.00;;;;;;;;;;5113478;28;20100;-80
2023/01/05 09:08:27;;;;;;;0.00;0.00;;;;;;;;;;5112161;28;20079;-80
2023/01/05 09:10:53;;;;;;;0.00;0.00;;;;;;;;;;5112399;28;20051;-80
2023/01/05 09:13:19;;;;;;;0.00;0.00;;;;;;;;;;5112169;28;20071;-80
2023/01/05 09:15:45;;;;;;;0.00;0.00;;;;;;;;;;5112382;28;20040;-80
2023/01/05 09:18:11;;;;;;;0.00;0.00;;;;;;;;;;5112033;28;20035;-80
2023/01/05 09:20:37;;;;;;;0.00;0.00;;;;;;;;;;5112201;28;20119;-80
2023/01/05 09:23:03;;;;;;;0.00;0.00;;;;;;;;;;5112082;28;20051;-80
2023/01/05 09:25:28;;;;;;;0.00;0.00;;;;;;;;;;5113489;28;20043;-80
2023/01/05 09:27:54;;;;;;;0.00;0.00;;;;;;;;;;5113063;28;20046;-80
2023/01/05 09:30:20;;;;;;;0.00;0.00;;;;;;;;;;5112041;28;20054;-80
2023/01/05 09:32:46;;;;;;;0.00;0.00;;;;;;;;;;5112794;28;20476;-80
2023/01/05 09:35:12;;;;;;;0.00;0.00;;;;;;;;;;5112059;28;20059;-80
2023/01/05 09:37:39;;;;;;;0.00;0.00;;;;;;;;;;5112990;28;20047;-80
2023/01/05 09:40:06;;;;;;;0.00;0.00;;;;;;;;;;5112038;28;20051;-80
2023/01/05 09:42:35;;;;;;;0.00;0.00;;;;;;;;;;5113511;28;20111;-80
2023/01/05 09:45:04;;;;;;;0.00;0.00;;;;;;;;;;5112083;28;20478;-81
2023/01/05 09:47:34;;;;;;;0.00;0.00;;;;;;;;;;5112165;28;20066;-81
2023/01/05 09:50:00;;;;;;;0.00;0.00;;;;;;;;;;5113077;28;20136;-81
2023/01/05 09:52:28;;;;;;;0.00;0.00;;;;;;;;;;5111937;28;20043;-80
2023/01/05 09:54:54;;;;;;;0.38;0.38;;;;;;;;;;5111251;28;20040;-80
2023/01/05 09:57:23;;;;;;;0.00;0.00;;;;;;;;;;5111862;28;20055;-80
2023/01/05 09:59:51;;;;;;;0.00;0.00;;;;;;;;;;5112805;28;20117;-81
2023/01/05 10:02:19;;;;;;;0.00;0.00;;;;;;;;;;5113390;28;20134;-79
2023/01/05 10:04:46;;;;;;;0.00;0.00;;;;;;;;;;5111651;28;20525;-82
2023/01/05 10:07:29;;;;;;;0.00;0.00;;;;;;;;;;5113295;28;20493;-81
2023/01/05 10:09:57;;;;;;;0.00;0.00;;;;;;;;;;5111686;28;20051;-81
2023/01/05 10:13:04;;;;;;;0.00;0.00;;;;;;;;;;5111290;28;20414;-81
2023/01/05 10:15:59;;;;;;;0.00;0.00;;;;;;;;;;5111512;28;20108;-81
2023/01/05 10:18:27;;;;;;;0.00;0.00;;;;;;;;;;5081245;28;20084;-81
2023/01/05 10:21:12;;;;;;;0.00;0.00;;;;;;;;;;5116025;28;20386;-81
2023/01/05 10:23:50;;;;;;;0.00;0.00;;;;;;;;;;5098346;28;20043;-81
2023/01/05 10:26:23;;;;;;;0.00;0.00;;;;;;;;;;5115402;28;20130;-81
2023/01/05 10:28:49;;;;;;;0.00;0.00;;;;;;;;;;5115422;28;20486;-80
2023/01/05 10:31:15;;;;;;;0.00;0.00;;;;;;;;;;5115273;28;20039;-84
2023/01/05 10:33:51;;;;;;;0.00;0.00;;;;;;;;;;5097857;28;20410;-81
2023/01/05 10:36:17;;;;;;;0.00;0.00;;;;;;;;;;5115105;28;20054;-81
2023/01/05 10:39:06;;;;;;;0.00;0.00;;;;;;;;;;5116345;28;20036;-81
2023/01/05 10:41:35;;;;;;;0.00;0.00;;;;;;;;;;5115397;28;20071;-81
2023/01/05 10:44:07;;;;;;;0.00;0.00;;;;;;;;;;5114753;28;20170;-81
2023/01/05 10:46:36;;;;;;;0.00;0.00;;;;;;;;;;5115169;28;20048;-81
2023/01/05 10:49:02;;;;;;;0.00;0.00;;;;;;;;;;5116069;28;20046;-81
2023/01/05 10:51:31;;;;;;;0.00;0.00;;;;;;;;;;5115337;28;20043;-81
2023/01/05 10:53:57;;;;;;;0.00;0.00;;;;;;;;;;5114514;28;20478;-81
2023/01/05 10:56:24;;;;;;;0.00;0.00;;;;;;;;;;5114902;28;20046;-81
2023/01/05 10:59:06;;;;;;;0.00;0.00;;;;;;;;;;5114403;28;20509;-81
2023/01/05 11:01:32;;;;;;;0.00;0.00;;;;;;;;;;5114711;28;20040;-81
2023/01/05 11:04:06;;;;;;;0.00;0.00;;;;;;;;;;5114641;28;20035;-81
2023/01/05 11:06:34;;;;;;;0.00;0.00;;;;;;;;;;5116008;28;20035;-80
2023/01/05 11:09:06;;;;;;;0.10;0.10;;;;;;;;;;5115607;28;20123;-80
2023/01/05 11:11:32;;;;;;;0.00;0.00;;;;;;;;;;5114581;28;20043;-81
2023/01/05 11:13:58;;;;;;;0.00;0.00;;;;;;;;;;5114134;28;20050;-80
2023/01/05 11:16:31;;;;;;;0.00;0.00;;;;;;;;;;5114435;28;20536;-81
2023/01/05 11:18:58;;;;;;;0.00;0.00;;;;;;;;;;5097239;28;20402;-81
2023/01/05 11:21:24;;;;;;;0.00;0.00;;;;;;;;;;5115810;28;20553;-80
2023/01/05 11:23:55;;;;;;;0.00;0.00;;;;;;;;;;5113859;28;20090;-83
2023/01/05 11:26:23;;;;;;;0.00;0.00;;;;;;;;;;5114276;28;20044;-80
2023/01/05 11:29:01;;;;;;;0.00;0.00;;;;;;;;;;5115364;28;20036;-80
2023/01/05 11:31:33;;;;;;;0.00;0.00;;;;;;;;;;5112810;28;20339;-82
2023/01/05 11:34:03;;;;;;;0.00;0.00;;;;;;;;;;5113461;28;20108;-80
2023/01/05 11:36:29;;;;;;;0.00;0.00;;;;;;;;;;5096811;28;20040;-80
2023/01/05 11:38:56;;;;;;;0.00;0.00;;;;;;;;;;5115223;28;20032;-81
2023/01/05 11:41:23;;;;;;;0.00;0.00;;;;;;;;;;5113898;28;20044;-80
2023/01/05 11:43:49;;;;;;;0.00;0.00;;;;;;;;;;5113488;28;20123;-80
2023/01/05 11:46:16;;;;;;;0.00;0.00;;;;;;;;;;5114178;28;20580;-80
2023/01/05 11:48:49;;;;;;;0.25;0.00;;;;;;;;;;5115228;28;20039;-81
2023/01/05 11:51:32;;;;;;;0.00;0.00;;;;;;;;;;5114111;28;20071;-81
2023/01/05 11:53:58;;;;;;;0.00;0.00;;;;;;;;;;5114815;28;20036;-81
2023/01/05 11:56:24;;;;;;;0.00;0.00;;;;;;;;;;5113574;28;20120;-80
2023/01/05 11:58:53;;;;;;;0.00;0.00;;;;;;;;;;5113509;28;20519;-81
2023/01/05 12:01:25;;;;;;;0.00;0.00;;;;;;;;;;5096578;28;20036;-80
2023/01/05 12:04:03;;;;;;;0.00;0.00;;;;;;;;;;5113327;28;20050;-81
2023/01/05 12:06:39;;;;;;;0.00;0.00;;;;;;;;;;5113518;28;20122;-81
2023/01/05 12:09:23;;;;;;;0.00;0.00;;;;;;;;;;5113028;28;20095;-80
2023/01/05 12:11:58;;;;;;;0.00;0.00;;;;;;;;;;5114616;28;20071;-81
2023/01/05 12:14:36;;;;;;;0.00;0.00;;;;;;;;;;5113095;28;20478;-81
2023/01/05 12:17:13;;;;;;;0.00;0.00;;;;;;;;;;5113083;28;20100;-80
2023/01/05 12:19:59;;;;;;;0.00;0.00;;;;;;;;;;5096035;28;20063;-80
2023/01/05 12:22:34;;;;;;;0.00;0.00;;;;;;;;;;5082282;28;20078;-80
2023/01/05 12:25:07;;;;;;;0.00;0.00;;;;;;;;;;5114265;28;20058;-80
2023/01/05 12:27:39;;;;;;;0.00;0.00;;;;;;;;;;5113026;28;20331;-81
2023/01/05 12:30:20;;;;;;;0.00;0.00;;;;;;;;;;5113025;28;20386;-81
2023/01/05 12:33:05;;;;;;;0.00;0.00;;;;;;;;;;5112995;28;20047;-81
2023/01/05 12:35:50;;;;;;;0.00;0.00;;;;;;;;;;5112405;28;20051;-81
2023/01/05 12:38:24;;;;;;;0.00;0.00;;;;;;;;;;5114365;28;20040;-81
2023/01/05 12:41:07;;;;;;;0.00;0.00;;;;;;;;;;5112492;28;20044;-81
2023/01/05 12:43:41;;;;;;;0.00;0.00;;;;;;;;;;5112261;28;20495;-81
2023/01/05 12:46:19;;;;;;;0.00;0.00;;;;;;;;;;5095364;28;20470;-80
2023/01/05 12:48:54;;;;;;;0.00;0.00;;;;;;;;;;5113935;28;20118;-81
2023/01/05 12:51:20;;;;;;;0.00;0.00;;;;;;;;;;5113568;28;20377;-81
2023/01/05 12:54:04;;;;;;;0.00;0.00;;;;;;;;;;5113678;28;20035;-81
2023/01/05 12:56:45;;;;;;;0.00;0.00;;;;;;;;;;5113586;28;20071;-80
2023/01/05 12:59:14;;;;;;;0.00;0.00;;;;;;;;;;5112245;28;20039;-80
2023/01/05 13:01:49;;;;;;;0.00;0.00;;;;;;;;;;5112245;28;20052;-80
2023/01/05 13:04:24;;;;;;;0.00;0.00;;;;;;;;;;5113764;28;20071;-82
2023/01/05 13:06:52;;;;;;;0.00;0.00;;;;;;;;;;5112157;28;20046;-80
2023/01/05 13:09:21;;;;;;;0.00;0.00;;;;;;;;;;5113696;28;20083;-80
2023/01/05 13:11:51;;;;;;;0.00;0.00;;;;;;;;;;5112027;28;20399;-80
2023/01/05 13:14:19;;;;;;;0.00;0.00;;;;;;;;;;5095272;28;20193;-81
2023/01/05 13:16:53;;;;;;;0.00;0.00;;;;;;;;;;5113376;28;20039;-81
2023/01/05 13:19:28;;;;;;;0.00;0.00;;;;;;;;;;5112459;28;20040;-80
2023/01/05 13:21:54;;;;;;;0.00;0.00;;;;;;;;;;5113316;28;20043;-81
2023/01/05 13:24:27;;;;;;;0.00;0.00;;;;;;;;;;5112242;28;20375;-81
2023/01/05 13:26:53;;;;;;;0.00;0.00;;;;;;;;;;5113054;27;20491;-80
2023/01/05 13:29:34;;;;;;;0.00;0.00;;;;;;;;;;5112063;28;20043;-80
2023/01/05 13:32:00;;;;;;;0.00;0.00;;;;;;;;;;5111970;28;20486;-81
2023/01/05 13:34:32;;;;;;;0.00;0.00;;;;;;;;;;5111637;28;20147;-81
2023/01/05 13:37:17;;;;;;;0.00;0.00;;;;;;;;;;5111614;28;20048;-81
2023/01/05 13:39:46;;;;;;;0.00;0.00;;;;;;;;;;5111815;28;20039;-80
2023/01/05 13:42:18;;;;;;;0.00;0.00;;;;;;;;;;5111726;28;20042;-80
2023/01/05 13:44:55;;;;;;;0.00;0.00;;;;;;;;;;5111675;28;20040;-80
2023/01/05 13:47:32;;;;;;;0.00;0.00;;;;;;;;;;5112913;28;20143;-80
2023/01/05 13:50:22;;;;;;;0.00;0.00;;;;;;;;;;5113091;28;20047;-82
2023/01/05 13:52:48;;;;;;;0.00;0.00;;;;;;;;;;5095001;28;20051;-80
2023/01/05 13:55:16;;;;;;;0.00;0.00;;;;;;;;;;5110502;28;20047;-80
2023/01/05 13:57:43;;;;;;;0.00;0.00;;;;;;;;;;5111559;28;20043;-80
2023/01/05 14:00:29;;;;;;;0.00;0.00;;;;;;;;;;5111148;28;20509;-80
2023/01/05 14:02:58;;;;;;;0.00;0.00;;;;;;;;;;5111384;28;20096;-81
2023/01/05 14:05:29;;;;;;;0.00;0.00;;;;;;;;;;5112557;28;20047;-80
2023/01/05 14:07:55;;;;;;;0.00;0.00;;;;;;;;;;5111712;28;20057;-80
2023/01/05 14:10:29;;;;;;;0.00;0.00;;;;;;;;;;5111538;28;20378;-80
2023/01/05 14:12:55;;;;;;;0.00;0.00;;;;;;;;;;5111865;28;20047;-80
2023/01/05 14:15:36;;;;;;;0.00;0.00;;;;;;;;;;5112406;28;20047;-80
2023/01/05 14:18:12;;;;;;;0.00;0.00;;;;;;;;;;5111584;28;20039;-80
2023/01/05 14:21:05;;;;;;;0.00;0.00;;;;;;;;;;5094284;28;20074;-80
2023/01/05 14:23:31;;;;;;;0.00;0.00;;;;;;;;;;5110121;28;20394;-80
2023/01/05 14:25:58;;;;;;;0.00;0.00;;;;;;;;;;5111241;28;20047;-80
2023/01/05 14:28:27;;;;;;;0.00;0.00;;;;;;;;;;5094323;28;20036;-80
2023/01/05 14:31:13;;;;;;;0.00;0.00;;;;;;;;;;5111134;28;20040;-80
2023/01/05 14:33:59;;;;;;;0.00;0.00;;;;;;;;;;5110957;28;20083;-80
2023/01/05 14:36:34;;;;;;;0.00;0.00;;;;;;;;;;5111001;28;20044;-80
2023/01/05 14:39:19;;;;;;;0.00;0.00;;;;;;;;;;5112786;28;20036;-82
2023/01/05 14:42:03;;;;;;;0.00;0.00;;;;;;;;;;5094269;28;20058;-85
2023/01/05 14:44:36;;;;;;;0.00;0.00;;;;;;;;;;5111450;28;20364;-79
2023/01/05 14:47:03;;;;;;;0.00;0.00;;;;;;;;;;5111121;28;20079;-80
2023/01/05 14:49:29;;;;;;;0.00;0.00;;;;;;;;;;5112764;28;20390;-83
2023/01/05 14:51:59;;;;;;;0.00;0.00;;;;;;;;;;5111190;28;20075;-82
2023/01/05 14:54:40;;;;;;;0.00;0.00;;;;;;;;;;5112413;28;20332;-81
2023/01/05 14:57:24;;;;;;;0.00;0.00;;;;;;;;;;5110777;28;20076;-80
2023/01/05 14:59:55;;;;;;;0.00;0.00;;;;;;;;;;5111360;28;20552;-80
2023/01/05 15:02:25;;;;;;;0.00;0.00;;;;;;;;;;5110951;28;20044;-80
2023/01/05 15:04:54;;;;;;;0.00;0.00;;;;;;;;;;5111056;28;20100;-80
2023/01/05 15:07:42;;;;;;;0.00;0.00;;;;;;;;;;5114536;28;20040;-80
2023/01/05 15:10:12;;;;;;;0.00;0.00;;;;;;;;;;5116267;28;20046;-80
2023/01/05 15:12:50;;;;;;;0.00;0.00;;;;;;;;;;5114645;28;20040;-80
2023/01/05 15:15:35;;;;;;;0.00;0.00;;;;;;;;;;5116186;28;20555;-80
2023/01/05 15:18:19;;;;;;;0.00;0.00;;;;;;;;;;5114804;28;20040;-80
2023/01/05 15:21:04;;;;;;;0.00;0.00;;;;;;;;;;5114941;28;20043;-80
2023/01/05 15:23:39;;;;;;;0.00;0.00;;;;;;;;;;5114513;28;20112;-80
2023/01/05 15:26:24;;;;;;;0.00;0.00;;;;;;;;;;5115591;28;20032;-80
2023/01/05 15:28:50;;;;;;;0.00;0.00;;;;;;;;;;5115690;28;20050;-80